Time;durP1;ratioP1;P1;durP2;ratioP2;P2;SDS_P1;SDS_P2;PMS_P1;PMS_P2;Temp;Humidity;BMP_temperature;BMP_pressure;BME280_temperature;BME280_humidity;BME280_pressure;Samples;Min_cycle;Max_cycle;Signal;HPM_P1;HPM_P2
2022/10/09 00:00:12;;;;;;;14.27;5.47;;;;;;;8.03;100.00;102658.56;5046368;28;20025;-63
2022/10/09 00:02:37;;;;;;;11.50;5.15;;;;;;;8.01;100.00;102655.94;5047933;28;20074;-63
2022/10/09 00:05:03;;;;;;;12.40;4.78;;;;;;;8.00;100.00;102659.44;5046607;28;20041;-62
2022/10/09 00:07:28;;;;;;;12.23;5.03;;;;;;;7.99;100.00;102652.44;5046279;28;20104;-63
2022/10/09 00:09:54;;;;;;;14.30;4.68;;;;;;;8.00;100.00;102654.19;5048185;28;20029;-63
2022/10/09 00:12:19;;;;;;;15.23;4.90;;;;;;;7.96;100.00;102655.03;5047465;28;20025;-64
2022/10/09 00:14:44;;;;;;;18.80;5.30;;;;;;;7.95;100.00;102654.16;5048029;28;20025;-63
2022/10/09 00:17:10;;;;;;;11.40;5.50;;;;;;;7.95;100.00;102654.16;5047555;28;20684;-64
2022/10/09 00:19:35;;;;;;;12.50;4.90;;;;;;;7.94;100.00;102652.41;5046939;28;20028;-63
2022/10/09 00:22:00;;;;;;;16.70;5.28;;;;;;;7.96;100.00;102657.66;5047428;28;20124;-65
2022/10/09 00:24:26;;;;;;;13.60;5.90;;;;;;;7.96;100.00;102660.28;5046762;28;20123;-63
2022/10/09 00:26:51;;;;;;;16.63;5.78;;;;;;;7.94;100.00;102659.38;5046127;28;20028;-64
2022/10/09 00:29:16;;;;;;;12.52;5.65;;;;;;;7.90;100.00;102657.63;5047988;28;20083;-64
2022/10/09 00:31:42;;;;;;;12.77;5.47;;;;;;;7.88;100.00;102654.09;5047571;28;20093;-64
2022/10/09 00:34:07;;;;;;;15.18;4.93;;;;;;;7.87;100.00;102654.97;5046462;28;20033;-64
2022/10/09 00:36:32;;;;;;;12.98;4.97;;;;;;;7.86;100.00;102656.75;5032938;28;20045;-62
2022/10/09 00:38:57;;;;;;;10.57;4.88;;;;;;;7.87;100.00;102652.34;5026454;28;20045;-62
2022/10/09 00:41:27;;;;;;;12.20;5.25;;;;;;;7.89;100.00;102654.09;5027752;28;20469;-63
2022/10/09 00:43:54;;;;;;;15.23;5.15;;;;;;;7.88;100.00;102649.72;5027638;28;20026;-63
2022/10/09 00:46:41;;;;;;;15.73;4.97;;;;;;;7.89;100.00;102648.84;5027173;28;20056;-62
2022/10/09 00:49:06;;;;;;;17.25;5.22;;;;;;;7.87;100.00;102644.47;5040107;28;20399;-63
2022/10/09 00:51:33;;;;;;;11.95;5.07;;;;;;;7.85;100.00;102639.22;5047168;28;20029;-63
2022/10/09 00:53:59;;;;;;;16.33;5.00;;;;;;;7.82;100.00;102639.19;5046172;28;20471;-62
2022/10/09 00:56:24;;;;;;;11.02;5.00;;;;;;;7.79;100.00;102642.69;5029318;28;20123;-63
2022/10/09 00:58:52;;;;;;;12.00;5.00;;;;;;;7.75;100.00;102640.91;5045995;28;20179;-64
2022/10/09 01:01:18;;;;;;;15.20;5.30;;;;;;;7.75;100.00;102640.03;5046195;28;20029;-62
2022/10/09 01:03:43;;;;;;;8.60;4.18;;;;;;;7.74;100.00;102641.78;5046894;28;20360;-64
2022/10/09 01:06:16;;;;;;;14.07;5.25;;;;;;;7.74;100.00;102639.16;5046843;28;20029;-63
2022/10/09 01:09:08;;;;;;;16.15;4.55;;;;;;;7.73;100.00;102632.13;5044696;28;20021;-64
2022/10/09 01:12:06;;;;;;;17.08;5.20;;;;;;;7.74;100.00;102640.91;5030087;28;20029;-64
2022/10/09 01:14:36;;;;;;;16.48;4.85;;;;;;;7.74;100.00;102643.53;5047747;28;20065;-64
2022/10/09 01:17:07;;;;;;;14.38;4.90;;;;;;;7.73;100.00;102637.38;5046712;28;20036;-63
2022/10/09 01:20:00;;;;;;;14.32;4.80;;;;;;;7.73;100.00;102637.38;5044611;28;20021;-63
2022/10/09 01:22:43;;;;;;;13.30;4.57;;;;;;;7.73;100.00;102637.38;5046041;28;20041;-63
2022/10/09 01:25:32;;;;;;;12.63;4.18;;;;;;;7.76;100.00;102626.91;5045492;28;20033;-63
2022/10/09 01:27:57;;;;;;;10.95;4.47;;;;;;;7.74;100.00;102626.03;5039933;28;20037;-66
2022/10/09 01:30:23;;;;;;;12.48;4.93;;;;;;;7.72;100.00;102630.38;5046122;28;20029;-64
2022/10/09 01:32:50;;;;;;;16.60;4.60;;;;;;;7.69;100.00;102633.88;5047090;28;20053;-60
2022/10/09 01:35:16;;;;;;;13.55;4.10;;;;;;;7.68;100.00;102623.38;5046281;28;20051;-63
2022/10/09 01:37:43;;;;;;;10.25;4.28;;;;;;;7.65;100.00;102611.09;5046377;28;20021;-64
2022/10/09 01:40:09;;;;;;;10.88;4.55;;;;;;;7.66;100.00;102617.22;5046163;28;20086;-63
2022/10/09 01:42:35;;;;;;;12.73;5.03;;;;;;;7.64;100.00;102611.06;5049171;28;20018;-63
2022/10/09 01:45:00;;;;;;;12.57;4.78;;;;;;;7.59;100.00;102617.16;5049807;28;20055;-63
2022/10/09 01:47:26;;;;;;;15.43;4.93;;;;;;;7.59;100.00;102608.44;5050248;28;20116;-64
2022/10/09 01:50:09;;;;;;;15.40;4.97;;;;;;;7.60;100.00;102607.56;5049590;28;20029;-63
2022/10/09 01:52:42;;;;;;;17.38;5.07;;;;;;;7.59;100.00;102606.69;5049142;28;20056;-63
2022/10/09 01:55:45;;;;;;;10.15;4.38;;;;;;;7.56;100.00;102603.16;5032889;28;20056;-64
2022/10/09 01:58:29;;;;;;;16.73;4.78;;;;;;;7.53;100.00;102600.53;5048223;28;20040;-64
2022/10/09 02:01:04;;;;;;;13.75;4.57;;;;;;;7.51;100.00;102599.63;5050972;28;20727;-63
2022/10/09 02:03:31;;;;;;;12.50;4.32;;;;;;;7.52;100.00;102594.38;5049190;28;20432;-64
2022/10/09 02:05:56;;;;;;;13.10;4.82;;;;;;;7.51;100.00;102597.88;5049148;28;20033;-64
2022/10/09 02:08:23;;;;;;;12.77;5.15;;;;;;;7.52;100.00;102593.50;5049824;28;20025;-63
2022/10/09 02:10:52;;;;;;;15.50;5.40;;;;;;;7.51;100.00;102584.78;5050428;28;20032;-64
2022/10/09 02:13:17;;;;;;;10.48;4.95;;;;;;;7.52;100.00;102589.13;5048766;28;20029;-64
2022/10/09 02:15:47;;;;;;;16.10;5.15;;;;;;;7.52;100.00;102588.25;5049407;28;20473;-64
2022/10/09 02:18:14;;;;;;;18.15;5.75;;;;;;;7.48;100.00;102587.38;5049038;28;20028;-64
2022/10/09 02:20:44;;;;;;;12.77;5.75;;;;;;;7.45;100.00;102588.22;5049643;28;20056;-63
2022/10/09 02:23:10;;;;;;;15.85;5.40;;;;;;;7.43;100.00;102583.81;5049774;28;20100;-63
2022/10/09 02:25:35;;;;;;;16.25;5.38;;;;;;;7.40;100.00;102584.69;5050618;28;20170;-65
2022/10/09 02:28:02;;;;;;;18.48;6.35;;;;;;;7.36;100.00;102580.28;5050222;28;20040;-66
2022/10/09 02:30:35;;;;;;;11.88;5.15;;;;;;;7.35;100.00;102578.53;5038787;28;20029;-63
2022/10/09 02:33:00;;;;;;;16.30;5.45;;;;;;;7.33;100.00;102577.63;5028605;28;20459;-64
2022/10/09 02:35:25;;;;;;;18.08;5.97;;;;;;;7.32;100.00;102568.88;5029705;28;20072;-64
2022/10/09 02:37:51;;;;;;;14.80;5.43;;;;;;;7.31;100.00;102575.00;5028227;28;20472;-63
2022/10/09 02:40:16;;;;;;;14.55;6.47;;;;;;;7.31;100.00;102568.88;5029669;28;20017;-63
2022/10/09 02:42:41;;;;;;;10.95;5.72;;;;;;;7.30;100.00;102568.00;5036648;28;20395;-65
2022/10/09 02:45:07;;;;;;;20.30;6.53;;;;;;;7.31;100.00;102569.75;5049805;28;20412;-62
2022/10/09 02:47:33;;;;;;;15.48;6.45;;;;;;;7.29;100.00;102562.75;5050050;28;20645;-65
2022/10/09 02:49:58;;;;;;;18.27;5.95;;;;;;;7.30;100.00;102568.00;5050089;28;20074;-65
2022/10/09 02:52:23;;;;;;;16.75;6.35;;;;;;;7.30;100.00;102562.75;5048121;28;20040;-64
2022/10/09 02:54:49;;;;;;;18.00;6.10;;;;;;;7.30;100.00;102569.75;5049310;28;20068;-62
2022/10/09 02:57:14;;;;;;;22.98;7.28;;;;;;;7.33;100.00;102559.28;5048227;28;20033;-63
2022/10/09 02:59:39;;;;;;;12.93;6.10;;;;;;;7.31;100.00;102564.50;5049612;28;20021;-63
2022/10/09 03:02:05;;;;;;;12.07;5.65;;;;;;;7.29;100.00;102554.88;5049414;28;20029;-63
2022/10/09 03:04:30;;;;;;;15.55;5.93;;;;;;;7.27;100.00;102557.50;5049890;28;20463;-62
2022/10/09 03:06:55;;;;;;;14.38;5.57;;;;;;;7.28;100.00;102560.97;5049272;28;20037;-62
2022/10/09 03:09:21;;;;;;;16.65;6.75;;;;;;;7.25;100.00;102553.13;5048515;28;20025;-65
2022/10/09 03:11:46;;;;;;;11.43;6.45;;;;;;;7.23;100.00;102555.72;5034738;28;20035;-64
2022/10/09 03:14:11;;;;;;;12.50;6.65;;;;;;;7.24;100.00;102551.34;5029341;28;20033;-64
2022/10/09 03:16:37;;;;;;;16.50;6.53;;;;;;;7.23;100.00;102553.09;5028643;28;20041;-64
2022/10/09 03:19:02;;;;;;;19.10;7.05;;;;;;;7.24;100.00;102552.22;5039331;28;20025;-63
2022/10/09 03:21:27;;;;;;;16.90;6.68;;;;;;;7.24;100.00;102557.47;5048977;28;20162;-64
2022/10/09 03:23:53;;;;;;;17.48;6.85;;;;;;;7.24;100.00;102552.22;5048022;28;20480;-64
2022/10/09 03:26:23;;;;;;;18.23;6.63;;;;;;;7.20;100.00;102553.06;5049027;28;20341;-63
2022/10/09 03:28:49;;;;;;;15.32;7.00;;;;;;;7.19;100.00;102551.28;5048992;28;20108;-65
2022/10/09 03:31:16;;;;;;;21.73;7.55;;;;;;;7.21;100.00;102546.97;5049615;28;20028;-62
2022/10/09 03:33:42;;;;;;;18.55;6.50;;;;;;;7.23;100.00;102553.09;5048755;28;20043;-64
2022/10/09 03:36:08;;;;;;;18.85;6.90;;;;;;;7.23;100.00;102546.97;5049058;28;20414;-64
2022/10/09 03:38:33;;;;;;;21.05;6.45;;;;;;;7.19;100.00;102548.69;5047752;28;20103;-64
2022/10/09 03:40:59;;;;;;;26.08;7.20;;;;;;;7.25;100.00;102548.72;5063480;28;20017;-63
2022/10/09 03:43:25;;;;;;;20.00;7.10;;;;;;;7.24;100.00;102546.97;5048858;28;20037;-63
2022/10/09 03:45:50;;;;;;;23.88;6.75;;;;;;;7.23;100.00;102545.25;5047438;28;20128;-63
2022/10/09 03:48:16;;;;;;;19.50;6.18;;;;;;;7.20;100.00;102550.47;5049163;28;20443;-63
2022/10/09 03:50:41;;;;;;;14.05;5.68;;;;;;;7.20;100.00;102550.47;5048105;28;20102;-63
2022/10/09 03:53:11;;;;;;;17.92;6.40;;;;;;;7.18;100.00;102557.41;5048118;28;20033;-65
2022/10/09 03:55:36;;;;;;;15.40;5.70;;;;;;;7.16;100.00;102557.41;5047550;28;20047;-63
2022/10/09 03:58:02;;;;;;;12.18;4.97;;;;;;;7.15;100.00;102554.75;5048699;28;20029;-65
2022/10/09 04:00:27;;;;;;;16.77;6.50;;;;;;;7.14;100.00;102550.41;5047547;28;20025;-63
2022/10/09 04:02:52;;;;;;;27.65;7.45;;;;;;;7.16;100.00;102551.28;5048378;28;20593;-63
2022/10/09 04:05:18;;;;;;;18.98;6.38;;;;;;;7.15;100.00;102555.66;5047454;28;20064;-64
2022/10/09 04:07:43;;;;;;;16.05;6.45;;;;;;;7.18;100.00;102546.94;5048245;28;20104;-63
2022/10/09 04:10:09;;;;;;;15.05;7.55;;;;;;;7.20;100.00;102553.06;5030277;28;20053;-64
2022/10/09 04:12:35;;;;;;;19.10;6.88;;;;;;;7.21;100.00;102552.19;5048271;28;20029;-63
2022/10/09 04:15:00;;;;;;;18.73;6.82;;;;;;;7.17;100.00;102550.44;5047381;28;20025;-63
2022/10/09 04:17:25;;;;;;;15.95;6.25;;;;;;;7.14;100.00;102551.28;5048232;28;20151;-63
2022/10/09 04:19:51;;;;;;;15.65;6.35;;;;;;;7.13;100.00;102548.66;5047379;28;20083;-62
2022/10/09 04:22:16;;;;;;;21.02;6.95;;;;;;;7.10;100.00;102546.84;5046679;28;20068;-63
2022/10/09 04:24:41;;;;;;;17.45;7.35;;;;;;;7.07;100.00;102549.44;5048136;28;20032;-65
2022/10/09 04:27:07;;;;;;;17.80;7.18;;;;;;;7.07;100.00;102550.34;5047857;28;20035;-64
2022/10/09 04:29:32;;;;;;;17.92;6.70;;;;;;;7.06;100.00;102553.84;5048032;28;20108;-64
2022/10/09 04:31:57;;;;;;;16.88;6.63;;;;;;;7.03;100.00;102543.31;5038453;28;20044;-63
2022/10/09 04:34:23;;;;;;;11.90;6.45;;;;;;;6.98;100.00;102547.63;5044242;28;20438;-63
2022/10/09 04:36:48;;;;;;;19.15;6.75;;;;;;;6.98;100.00;102555.50;5046652;28;20659;-63
2022/10/09 04:39:13;;;;;;;13.82;6.80;;;;;;;6.96;100.00;102546.75;5047229;28;20467;-64
2022/10/09 04:41:39;;;;;;;19.45;7.20;;;;;;;6.98;100.00;102534.53;5047863;28;20387;-65
2022/10/09 04:44:04;;;;;;;16.40;6.75;;;;;;;7.00;100.00;102532.81;5047438;28;20371;-64
2022/10/09 04:46:30;;;;;;;16.02;7.60;;;;;;;7.00;100.00;102532.81;5046558;28;20037;-66
2022/10/09 04:48:55;;;;;;;21.05;8.25;;;;;;;7.03;100.00;102527.59;5047061;28;20025;-63
2022/10/09 04:51:20;;;;;;;20.77;7.70;;;;;;;7.04;100.00;102526.72;5047427;28;20056;-63
2022/10/09 04:53:46;;;;;;;16.33;7.32;;;;;;;7.08;100.00;102532.88;5045385;28;20477;-63
2022/10/09 04:56:14;;;;;;;19.67;7.55;;;;;;;7.05;100.00;102528.47;5043121;28;20029;-64
2022/10/09 04:58:40;;;;;;;19.27;7.97;;;;;;;7.04;100.00;102534.59;5045569;28;20119;-64
2022/10/09 05:01:11;;;;;;;16.13;7.47;;;;;;;7.04;100.00;102531.97;5046375;28;20068;-64
2022/10/09 05:03:37;;;;;;;18.33;7.28;;;;;;;7.02;100.00;102527.59;5046646;28;20094;-63
2022/10/09 05:06:04;;;;;;;17.33;7.13;;;;;;;6.99;100.00;102523.19;5046758;28;20456;-63
2022/10/09 05:08:30;;;;;;;21.63;7.20;;;;;;;6.99;100.00;102531.06;5047076;28;20060;-64
2022/10/09 05:10:59;;;;;;;20.55;6.88;;;;;;;6.94;100.00;102533.66;5047425;28;20032;-65
2022/10/09 05:13:24;;;;;;;;;;;;;;;6.95;100.00;102521.41;5048391;28;20059;-63
2022/10/09 05:15:50;;;;;;;14.38;6.53;;;;;;;6.95;100.00;102524.00;5048056;28;19963;-66
2022/10/09 05:18:15;;;;;;;22.20;6.75;;;;;;;6.95;100.00;102530.16;5048758;28;20118;-65
2022/10/09 05:20:40;;;;;;;19.25;6.60;;;;;;;6.88;100.00;102528.34;5051273;28;20669;-64
2022/10/09 05:23:06;;;;;;;17.20;6.57;;;;;;;6.87;100.00;102536.19;5050160;28;20732;-63
2022/10/09 05:25:31;;;;;;;16.58;7.25;;;;;;;6.87;100.00;102528.31;5050456;28;20039;-64
2022/10/09 05:27:56;;;;;;;21.05;7.53;;;;;;;6.85;100.00;102532.66;5050476;28;20029;-64
2022/10/09 05:30:22;;;;;;;19.35;7.18;;;;;;;6.83;100.00;102522.16;5050534;28;20021;-65
2022/10/09 05:32:47;;;;;;;30.88;8.15;;;;;;;6.82;100.00;102529.16;5050175;28;20032;-63
2022/10/09 05:35:13;;;;;;;20.98;8.25;;;;;;;6.78;100.00;102532.63;5050529;28;20052;-65
2022/10/09 05:37:38;;;;;;;26.63;8.88;;;;;;;6.83;100.00;102535.28;5048808;28;20052;-63
2022/10/09 05:40:04;;;;;;;22.17;8.45;;;;;;;6.81;100.00;102527.41;5050882;28;20040;-64
2022/10/09 05:42:29;;;;;;;21.55;7.63;;;;;;;6.78;100.00;102532.63;5049974;28;20493;-63
2022/10/09 05:44:54;;;;;;;23.67;7.80;;;;;;;6.73;100.00;102529.06;5050073;28;20048;-64
2022/10/09 05:47:20;;;;;;;21.50;8.00;;;;;;;6.76;100.00;102523.88;5050031;28;20032;-62
2022/10/09 05:49:45;;;;;;;20.02;7.55;;;;;;;6.75;100.00;102527.38;5050502;28;20036;-64
2022/10/09 05:52:11;;;;;;;21.50;8.02;;;;;;;6.69;100.00;102528.16;5049267;28;20021;-64
2022/10/09 05:54:36;;;;;;;22.13;8.93;;;;;;;6.68;100.00;102529.03;5050235;28;20037;-66
2022/10/09 05:57:03;;;;;;;18.88;8.38;;;;;;;6.64;100.00;102528.97;5049682;28;20037;-62
2022/10/09 05:59:28;;;;;;;15.57;7.88;;;;;;;6.62;100.00;102533.34;5049886;28;20020;-64
2022/10/09 06:01:54;;;;;;;28.38;8.43;;;;;;;6.60;100.00;102532.44;5049812;28;20064;-63
2022/10/09 06:04:21;;;;;;;16.35;8.00;;;;;;;6.58;100.00;102524.56;5049384;28;20106;-62
2022/10/09 06:06:47;;;;;;;20.83;9.10;;;;;;;6.59;100.00;102531.56;5049753;28;20025;-66
2022/10/09 06:09:14;;;;;;;18.80;8.50;;;;;;;6.57;100.00;102523.69;5050437;28;20017;-63
2022/10/09 06:11:39;;;;;;;21.67;8.60;;;;;;;6.59;100.00;102520.22;5043016;28;20147;-65
2022/10/09 06:14:07;;;;;;;23.15;8.93;;;;;;;6.58;100.00;102527.19;5049581;28;20080;-65
2022/10/09 06:16:34;;;;;;;22.85;7.85;;;;;;;6.61;100.00;102531.56;5049394;28;20410;-65
2022/10/09 06:19:00;;;;;;;24.02;9.10;;;;;;;6.64;100.00;102524.63;5049355;28;20036;-64
2022/10/09 06:21:26;;;;;;;16.92;7.95;;;;;;;6.64;100.00;102528.97;5049515;28;20029;-64
2022/10/09 06:23:54;;;;;;;27.25;9.43;;;;;;;6.67;100.00;102529.91;5048588;28;20048;-64
2022/10/09 06:26:21;;;;;;;20.17;9.07;;;;;;;6.71;100.00;102522.94;5048398;28;20025;-65
2022/10/09 06:28:46;;;;;;;27.35;8.73;;;;;;;6.74;100.00;102530.81;5044494;28;20105;-63
2022/10/09 06:31:16;;;;;;;21.55;8.75;;;;;;;6.76;100.00;102529.09;5037587;28;20105;-64
2022/10/09 06:33:43;;;;;;;26.95;9.13;;;;;;;6.83;100.00;102528.28;5046261;28;20028;-64
2022/10/09 06:36:19;;;;;;;24.05;9.35;;;;;;;6.92;100.00;102529.22;5046417;28;20028;-63
2022/10/09 06:38:45;;;;;;;23.30;9.45;;;;;;;6.92;100.00;102531.84;5045963;28;20489;-67
2022/10/09 06:41:12;;;;;;;23.02;9.77;;;;;;;6.94;100.00;102533.66;5048103;28;20021;-64
2022/10/09 06:43:38;;;;;;;24.30;9.13;;;;;;;7.01;100.00;102531.94;5048066;28;20029;-66
2022/10/09 06:46:07;;;;;;;27.10;10.07;;;;;;;7.07;100.00;102532.00;5048110;28;20037;-63
2022/10/09 06:48:34;;;;;;;19.10;10.98;;;;;;;7.16;100.00;102533.81;5047004;28;20506;-63
2022/10/09 06:51:02;;;;;;;39.58;14.93;;;;;;;7.25;100.00;102535.63;5044806;28;20017;-64
2022/10/09 06:53:28;;;;;;;34.33;14.35;;;;;;;7.31;100.00;102532.16;5047914;28;20040;-64
2022/10/09 06:55:54;;;;;;;35.97;18.60;;;;;;;7.40;100.00;102529.59;5047634;28;20028;-63
2022/10/09 06:58:20;;;;;;;53.75;22.13;;;;;;;7.51;100.00;102523.56;5048329;28;20052;-63
2022/10/09 07:00:45;;;;;;;47.65;21.65;;;;;;;7.55;100.00;102530.56;5049783;28;20098;-65
2022/10/09 07:03:11;;;;;;;46.22;20.92;;;;;;;7.64;100.00;102537.59;5047376;28;20492;-62
2022/10/09 07:05:36;;;;;;;54.08;21.13;;;;;;;7.71;100.00;102528.94;5048024;28;20024;-63
2022/10/09 07:08:01;;;;;;;43.40;18.52;;;;;;;7.74;100.00;102528.94;5046641;28;20024;-64
2022/10/09 07:10:27;;;;;;;37.00;19.00;;;;;;;7.79;100.00;102534.19;5047531;28;20032;-62
2022/10/09 07:12:52;;;;;;;43.15;19.35;;;;;;;7.89;100.00;102535.13;5046772;28;20100;-63
2022/10/09 07:15:17;;;;;;;43.85;20.02;;;;;;;7.95;100.00;102532.53;5047297;28;20356;-63
2022/10/09 07:17:43;;;;;;;37.65;19.40;;;;;;;8.00;100.00;102533.44;5048048;28;20087;-63
2022/10/09 07:20:08;;;;;;;37.20;19.73;;;;;;;8.08;100.00;102533.47;5047578;28;20104;-63
2022/10/09 07:22:34;;;;;;;43.30;19.20;;;;;;;8.12;100.00;102532.59;5047651;28;20020;-64
2022/10/09 07:24:59;;;;;;;39.33;18.50;;;;;;;8.11;100.00;102529.97;5048130;28;20463;-64
2022/10/09 07:27:25;;;;;;;39.95;18.98;;;;;;;8.17;100.00;102537.88;5047408;28;20032;-64
2022/10/09 07:29:50;;;;;;;39.97;17.70;;;;;;;8.19;100.00;102534.38;5046318;28;20028;-64
2022/10/09 07:32:15;;;;;;;33.85;17.38;;;;;;;8.09;100.00;102533.47;5047997;28;20060;-64
2022/10/09 07:34:41;;;;;;;34.55;17.30;;;;;;;8.11;100.00;102530.84;5047324;28;20090;-63
2022/10/09 07:37:06;;;;;;;32.85;15.85;;;;;;;8.19;100.00;102533.50;5046001;28;20099;-63
2022/10/09 07:39:33;;;;;;;31.50;16.25;;;;;;;8.26;100.00;102530.03;5048044;28;20025;-65
2022/10/09 07:41:59;;;;;;;25.73;15.85;;;;;;;8.31;100.00;102532.66;5048016;28;20100;-64
2022/10/09 07:44:24;;;;;;;34.80;14.40;;;;;;;8.41;100.00;102534.44;5048352;28;20355;-64
2022/10/09 07:46:50;;;;;;;30.45;13.98;;;;;;;8.55;100.00;102523.97;5047995;28;20072;-64
2022/10/09 07:49:15;;;;;;;28.20;13.20;;;;;;;8.65;100.00;102524.00;5047516;28;20025;-62
2022/10/09 07:51:41;;;;;;;26.73;11.43;;;;;;;8.72;100.00;102520.50;5047099;28;20086;-61
2022/10/09 07:54:06;;;;;;;25.67;10.70;;;;;;;8.75;100.00;102520.50;5044716;28;20037;-64
2022/10/09 07:56:36;;;;;;;34.50;10.98;;;;;;;8.82;100.00;102524.91;5047726;28;20155;-63
2022/10/09 07:59:07;;;;;;;19.60;10.35;;;;;;;8.96;100.00;102526.66;5046016;28;20025;-63
2022/10/09 08:01:34;;;;;;;20.98;9.70;;;;;;;8.92;100.00;102515.28;5046269;28;20093;-63
2022/10/09 08:04:01;;;;;;;24.30;9.60;;;;;;;8.95;100.00;102524.91;5047341;28;20021;-64
2022/10/09 08:06:27;;;;;;;19.60;9.40;;;;;;;9.05;100.00;102525.78;5046723;28;20029;-64
2022/10/09 08:08:53;;;;;;;20.35;8.63;;;;;;;9.15;100.00;102527.53;5048198;28;20029;-63
2022/10/09 08:11:19;;;;;;;18.05;8.90;;;;;;;9.15;100.00;102529.28;5048191;28;20029;-63
2022/10/09 08:13:47;;;;;;;20.80;7.82;;;;;;;9.17;100.00;102522.25;5048314;28;20365;-63
2022/10/09 08:16:12;;;;;;;18.00;8.07;;;;;;;9.24;100.00;102521.38;5046952;28;20029;-62
2022/10/09 08:18:38;;;;;;;19.70;8.32;;;;;;;9.27;100.00;102516.09;5047504;28;20037;-63
2022/10/09 08:21:06;;;;;;;23.02;8.60;;;;;;;9.29;100.00;102514.38;5045869;28;20021;-63
2022/10/09 08:23:32;;;;;;;27.90;8.15;;;;;;;9.43;100.00;102521.34;5045756;28;20571;-63
2022/10/09 08:25:57;;;;;;;18.48;7.93;;;;;;;9.51;100.00;102519.56;5041051;28;20100;-64
2022/10/09 08:28:22;;;;;;;15.52;7.00;;;;;;;9.65;100.00;102516.03;5041781;28;20368;-63
2022/10/09 08:30:48;;;;;;;21.25;7.18;;;;;;;9.68;100.00;102508.13;5047430;28;20396;-63
2022/10/09 08:33:13;;;;;;;15.30;6.65;;;;;;;9.74;100.00;102513.38;5037993;28;20021;-62
2022/10/09 08:35:39;;;;;;;13.05;6.10;;;;;;;9.85;100.00;102513.34;5036094;28;20025;-62
2022/10/09 08:38:04;;;;;;;22.17;6.88;;;;;;;9.97;100.00;102515.06;5036889;28;20021;-63
2022/10/09 08:40:44;;;;;;;17.80;5.95;;;;;;;10.10;100.00;102498.31;5038841;28;20526;-62
2022/10/09 08:43:14;;;;;;;12.10;5.68;;;;;;;10.14;100.00;102498.28;5035472;28;20116;-63
2022/10/09 08:45:41;;;;;;;19.05;5.88;;;;;;;10.21;100.00;102494.75;5039955;28;20041;-63
2022/10/09 08:48:13;;;;;;;14.40;5.47;;;;;;;10.20;100.00;102500.88;5046343;28;20073;-65
2022/10/09 08:50:40;;;;;;;13.68;5.50;;;;;;;10.30;100.00;102494.66;5046772;28;20037;-61
2022/10/09 08:53:24;;;;;;;11.10;5.28;;;;;;;10.44;100.00;102501.59;5050190;28;20025;-62
2022/10/09 08:55:57;;;;;;;14.13;6.60;;;;;;;10.56;100.00;102501.56;5049918;28;20037;-62
2022/10/09 08:58:27;;;;;;;12.57;4.97;;;;;;;10.68;100.00;102495.31;5050793;28;20364;-62
2022/10/09 09:01:11;;;;;;;12.57;5.38;;;;;;;10.84;100.00;102485.53;5032640;28;20021;-62
2022/10/09 09:03:45;;;;;;;13.85;4.85;;;;;;;10.91;100.00;102491.63;5048619;28;20087;-61
2022/10/09 09:06:15;;;;;;;10.10;4.60;;;;;;;11.06;100.00;102481.81;5030140;28;20446;-61
2022/10/09 09:08:48;;;;;;;8.00;4.47;;;;;;;11.16;100.00;102485.22;5029799;28;20072;-62
2022/10/09 09:11:27;;;;;;;13.32;5.20;;;;;;;11.19;100.00;102490.47;5030917;28;20060;-62
2022/10/09 09:14:09;;;;;;;15.60;4.82;;;;;;;11.24;100.00;102484.28;5029820;28;20071;-63
2022/10/09 09:16:54;;;;;;;11.85;4.40;;;;;;;11.37;100.00;102474.47;5030987;28;20022;-61
2022/10/09 09:19:38;;;;;;;14.10;4.22;;;;;;;11.53;100.00;102473.44;5017125;28;20525;-62
2022/10/09 09:22:09;;;;;;;13.23;4.35;;;;;;;11.56;100.00;102479.53;5048577;28;20017;-64
2022/10/09 09:24:39;;;;;;;9.65;4.03;;;;;;;11.59;100.00;102476.00;5048467;28;20186;-63
2022/10/09 09:27:11;;;;;;;16.65;4.65;;;;;;;11.65;100.00;102467.97;5050414;28;20056;-62
2022/10/09 09:29:41;;;;;;;12.98;4.47;;;;;;;11.76;100.00;102465.22;5048322;28;20024;-62
2022/10/09 09:32:14;;;;;;;12.27;4.05;;;;;;;11.92;100.00;102470.31;5050481;28;20029;-60
2022/10/09 09:34:40;;;;;;;14.05;4.00;;;;;;;12.04;100.00;102458.69;5065064;28;20120;-64
2022/10/09 09:37:09;;;;;;;11.23;3.85;;;;;;;12.04;100.00;102451.63;5047934;28;20510;-64
2022/10/09 09:39:35;;;;;;;10.82;3.25;;;;;;;12.07;100.00;102451.63;5050605;28;20079;-62
2022/10/09 09:42:13;;;;;;;10.77;3.45;;;;;;;12.21;98.87;102455.81;5050156;28;20036;-61
2022/10/09 09:44:44;;;;;;;17.63;3.65;;;;;;;12.30;98.38;102447.78;5049439;28;20090;-63
2022/10/09 09:47:18;;;;;;;17.67;3.60;;;;;;;12.43;98.25;102452.88;5048615;28;20048;-62
2022/10/09 09:50:13;;;;;;;12.23;3.38;;;;;;;12.51;98.12;102437.75;5049300;28;20114;-63
2022/10/09 09:52:42;;;;;;;11.10;3.10;;;;;;;12.53;95.96;102429.78;5035712;28;20041;-63
2022/10/09 09:55:22;;;;;;;10.45;3.25;;;;;;;12.62;95.80;102430.50;5049824;28;20181;-62
2022/10/09 09:57:47;;;;;;;16.50;3.42;;;;;;;12.73;95.15;102426.78;5028481;28;20028;-63
2022/10/09 10:00:20;;;;;;;7.80;3.30;;;;;;;12.79;94.60;102421.41;5049006;28;20372;-63
2022/10/09 10:02:46;;;;;;;12.45;3.13;;;;;;;12.92;94.86;102421.19;5049311;28;20125;-62
2022/10/09 10:05:35;;;;;;;9.02;2.83;;;;;;;13.03;94.93;102419.19;5049747;28;20108;-63
2022/10/09 10:08:12;;;;;;;12.38;3.33;;;;;;;13.06;94.28;102413.84;5049368;28;20123;-62
2022/10/09 10:10:43;;;;;;;8.25;2.90;;;;;;;13.17;92.56;102411.00;5049499;28;20124;-62
2022/10/09 10:13:15;;;;;;;15.32;3.38;;;;;;;13.17;92.42;102412.78;5029631;28;20041;-62
2022/10/09 10:15:53;;;;;;;10.43;3.35;;;;;;;13.29;93.06;102414.31;5027936;28;20233;-62
2022/10/09 10:18:20;;;;;;;10.57;3.47;;;;;;;13.26;92.39;102404.66;5029718;28;20432;-62
2022/10/09 10:20:48;;;;;;;12.38;3.47;;;;;;;13.45;92.57;102406.94;5030098;28;20307;-62
2022/10/09 10:23:39;;;;;;;8.57;3.13;;;;;;;13.51;92.64;102406.81;5027415;28;20493;-61
2022/10/09 10:26:40;;;;;;;10.15;2.90;;;;;;;13.52;91.05;102396.19;5030696;28;20505;-62
2022/10/09 10:29:16;;;;;;;14.13;3.25;;;;;;;13.74;89.89;102400.16;5063942;28;20102;-63
2022/10/09 10:32:18;;;;;;;8.75;2.78;;;;;;;13.89;89.95;102399.81;5046371;28;20029;-63
2022/10/09 10:34:49;;;;;;;7.38;2.70;;;;;;;13.92;88.95;102398.00;5048834;28;20028;-61
2022/10/09 10:37:14;;;;;;;11.57;3.40;;;;;;;13.98;87.97;102393.44;5047453;28;20022;-61
2022/10/09 10:40:00;;;;;;;11.27;3.35;;;;;;;14.08;87.33;102394.09;5047930;28;20028;-62
2022/10/09 10:42:58;;;;;;;9.45;2.55;;;;;;;14.24;88.16;102388.41;5046873;28;20459;-63
2022/10/09 10:45:39;;;;;;;9.02;3.20;;;;;;;14.21;86.96;102372.59;5047773;28;20045;-63
2022/10/09 10:48:09;;;;;;;7.20;2.80;;;;;;;14.44;86.33;102371.13;5048021;28;20031;-64
2022/10/09 10:50:39;;;;;;;;;;;;;;;14.55;84.59;102377.03;5047985;28;20025;-61
2022/10/09 10:53:30;;;;;;;14.85;2.90;;;;;;;14.49;82.92;102370.09;5048329;28;19912;-61
2022/10/09 10:55:58;;;;;;;8.45;2.83;;;;;;;14.60;85.41;102369.81;5032523;28;20052;-62
2022/10/09 10:58:29;;;;;;;7.55;2.88;;;;;;;14.81;84.84;102354.25;5046108;28;20376;-63
2022/10/09 11:01:00;;;;;;;11.65;2.80;;;;;;;14.76;82.01;102351.72;5048430;28;20036;-63
2022/10/09 11:03:28;;;;;;;9.20;3.28;;;;;;;15.02;82.72;102350.13;5047406;28;20029;-63
2022/10/09 11:06:00;;;;;;;9.00;2.30;;;;;;;15.12;83.43;102339.25;5047506;28;20025;-61
2022/10/09 11:08:59;;;;;;;8.48;2.35;;;;;;;15.32;82.10;102333.34;5048235;28;20040;-62
2022/10/09 11:11:51;;;;;;;8.07;2.58;;;;;;;15.53;81.23;102334.47;5048405;28;20048;-63
2022/10/09 11:14:42;;;;;;;10.90;2.55;;;;;;;15.68;79.22;102326.94;5045874;28;20072;-60
2022/10/09 11:17:29;;;;;;;10.82;2.28;;;;;;;15.76;79.64;102316.94;5063074;28;20021;-64
2022/10/09 11:20:07;;;;;;;7.72;2.67;;;;;;;15.82;79.09;102312.31;5028264;28;20032;-62
2022/10/09 11:22:45;;;;;;;7.93;2.22;;;;;;;16.00;79.29;102306.44;5027081;28;20558;-63
2022/10/09 11:25:38;;;;;;;12.63;2.85;;;;;;;15.90;77.01;102303.19;5026798;28;20084;-61